Boryslav — ENLB — position and weather

sailwx.info

Track history (hours):
 
Tides and Currents Weather Stations Pressure Air Temp Water Temp Dewpoint Dewpoint Depression Visibility Wind Speed Wind Dir Waves Ship Positions

Boryslav

Last reported at 2014-Sep-02 06:28 UTC. Time now 2014-Sep-02 19:19 UTC.
Position N 46°35' E 031°51'.

Length 86 m; draft 2.3 m.

Type: Ship (hazmat cat D). MMSI: 272088700.

Date/timePositionNaut miles runAvg speedWind from/ knotsBaromVisibWave heightAir tempDewpointWater temp
2014-Sep-02 06:28N 46°35' E 031°51'5 5.9
2014-Sep-02 05:33N 46°33' E 031°58'  
2014-Aug-29 17:13N 47°35' E 035°02'7 4.0
2014-Aug-29 15:33N 47°41' E 035°08'4 3.8
2014-Aug-29 14:33N 47°44' E 035°10'4 3.8
2014-Aug-29 13:33N 47°48' E 035°10'0 0.2
2014-Aug-29 12:33N 47°48' E 035°09'0 0.0
2014-Aug-29 11:33N 47°48' E 035°09'0 0.0
2014-Aug-29 10:33N 47°48' E 035°09'0 0.0
2014-Aug-29 09:33N 47°48' E 035°09'0 0.0
2014-Aug-29 08:33N 47°48' E 035°09'0 0.1
2014-Aug-29 07:33N 47°48' E 035°09'4 4.0
2014-Aug-29 06:33N 47°51' E 035°05'1 1.0
2014-Aug-29 05:33N 47°52' E 035°06'1 0.6
2014-Aug-29 04:33N 47°53' E 035°06'0 0.3
2014-Aug-29 03:33N 47°53' E 035°06'0 0.0
2014-Aug-29 02:33N 47°53' E 035°06'0 0.0
2014-Aug-29 01:33N 47°53' E 035°06'0 0.0
2014-Aug-29 00:33N 47°53' E 035°06'0 0.0
2014-Aug-28 23:33N 47°53' E 035°06'0 0.0
2014-Aug-28 22:33N 47°53' E 035°06'0 0.0
2014-Aug-28 21:33N 47°53' E 035°06'0 0.1
2014-Aug-28 20:33N 47°53' E 035°06'0 0.5
2014-Aug-28 19:33N 47°53' E 035°06'4 4.1
2014-Aug-28 18:33N 47°57' E 035°07'4 4.1
2014-Aug-28 17:33N 48°01' E 035°08'  
Track history (hours):
 
Tides and Currents Weather Stations Pressure Air Temp Water Temp Dewpoint Dewpoint Depression Visibility Wind Speed Wind Dir Waves Ship Positions

Boryslav

Last reported at 2014-Sep-02 06:28 UTC. Time now 2014-Sep-02 19:19 UTC.
Position N 46°35' E 031°51'.

Length 86 m; draft 2.3 m.

Type: Ship (hazmat cat D). MMSI: 272088700.

Date/timePositionNaut miles runAvg speedWind from/ knotsBaromVisibWave heightAir tempDewpointWater temp
2014-Sep-02 06:28N 46°35' E 031°51'5 5.9
2014-Sep-02 05:33N 46°33' E 031°58'  
2014-Aug-29 17:13N 47°35' E 035°02'7 4.0
2014-Aug-29 15:33N 47°41' E 035°08'4 3.8
2014-Aug-29 14:33N 47°44' E 035°10'4 3.8
2014-Aug-29 13:33N 47°48' E 035°10'0 0.2
2014-Aug-29 12:33N 47°48' E 035°09'0 0.0
2014-Aug-29 11:33N 47°48' E 035°09'0 0.0
2014-Aug-29 10:33N 47°48' E 035°09'0 0.0
2014-Aug-29 09:33N 47°48' E 035°09'0 0.0
2014-Aug-29 08:33N 47°48' E 035°09'0 0.1
2014-Aug-29 07:33N 47°48' E 035°09'4 4.0
2014-Aug-29 06:33N 47°51' E 035°05'1 1.0
2014-Aug-29 05:33N 47°52' E 035°06'1 0.6
2014-Aug-29 04:33N 47°53' E 035°06'0 0.3
2014-Aug-29 03:33N 47°53' E 035°06'0 0.0
2014-Aug-29 02:33N 47°53' E 035°06'0 0.0
2014-Aug-29 01:33N 47°53' E 035°06'0 0.0
2014-Aug-29 00:33N 47°53' E 035°06'0 0.0
2014-Aug-28 23:33N 47°53' E 035°06'0 0.0
2014-Aug-28 22:33N 47°53' E 035°06'0 0.0
2014-Aug-28 21:33N 47°53' E 035°06'0 0.1
2014-Aug-28 20:33N 47°53' E 035°06'0 0.5
2014-Aug-28 19:33N 47°53' E 035°06'4 4.1
2014-Aug-28 18:33N 47°57' E 035°07'4 4.1
2014-Aug-28 17:33N 48°01' E 035°08'  

Dump ship's entire track history